createdAt,value
2023-04-29T00:00:11.118Z,11.35
2023-04-29T00:02:38.310Z,12.48
2023-04-29T00:05:05.728Z,13.30
2023-04-29T00:07:32.739Z,11.65
2023-04-29T00:09:59.743Z,13.43
2023-04-29T00:12:26.621Z,12.75
2023-04-29T00:14:53.527Z,13.23
2023-04-29T00:17:20.112Z,12.05
2023-04-29T00:19:46.896Z,14.38
2023-04-29T00:22:13.671Z,15.52
2023-04-29T00:24:40.382Z,14.70
2023-04-29T00:27:07.271Z,14.85
2023-04-29T00:29:33.850Z,16.10
2023-04-29T00:32:00.498Z,17.08
2023-04-29T00:34:27.126Z,15.50
2023-04-29T00:36:53.950Z,16.20
2023-04-29T00:39:20.671Z,15.05
2023-04-29T00:41:47.323Z,16.33
2023-04-29T00:44:14.006Z,15.40
2023-04-29T00:46:41.289Z,16.73
2023-04-29T00:49:08.850Z,16.50
2023-04-29T00:51:36.949Z,15.55
2023-04-29T00:54:05.012Z,18.45
2023-04-29T00:56:33.910Z,18.23
2023-04-29T00:59:02.651Z,16.83
2023-04-29T01:01:32.742Z,15.82
2023-04-29T01:04:00.336Z,17.92
2023-04-29T01:06:41.915Z,16.73
2023-04-29T01:09:23.498Z,17.33
2023-04-29T01:12:20.444Z,16.90
2023-04-29T01:15:04.296Z,17.00
2023-04-29T01:17:37.506Z,18.17
2023-04-29T01:20:05.874Z,17.23
2023-04-29T01:22:32.492Z,17.13
2023-04-29T01:24:59.282Z,17.00
2023-04-29T01:27:31.815Z,18.63
2023-04-29T01:30:40.188Z,16.60
2023-04-29T01:33:20.272Z,15.10
2023-04-29T01:35:58.848Z,14.93
2023-04-29T01:38:42.442Z,14.25
2023-04-29T01:41:19.092Z,15.20
2023-04-29T01:43:50.028Z,13.93
2023-04-29T01:46:19.393Z,14.32
2023-04-29T01:48:46.390Z,12.88
2023-04-29T01:51:13.484Z,14.63
2023-04-29T01:53:40.474Z,14.55
2023-04-29T01:56:08.081Z,15.18
2023-04-29T01:58:34.936Z,13.95
2023-04-29T02:01:01.571Z,13.68
2023-04-29T02:03:28.854Z,11.68
2023-04-29T02:05:55.648Z,13.68
2023-04-29T02:08:22.353Z,13.73
2023-04-29T02:10:54.781Z,13.05
2023-04-29T02:13:21.586Z,14.65
2023-04-29T02:15:48.262Z,13.88
2023-04-29T02:18:15.301Z,13.07
2023-04-29T02:20:42.486Z,13.38
2023-04-29T02:23:09.221Z,12.63
2023-04-29T02:25:36.403Z,13.70
2023-04-29T02:28:03.096Z,12.88
2023-04-29T02:30:30.401Z,12.35
2023-04-29T02:32:57.242Z,13.20
2023-04-29T02:35:23.924Z,12.02
2023-04-29T02:37:50.519Z,13.75
2023-04-29T02:40:17.191Z,12.00
2023-04-29T02:42:43.778Z,12.68
2023-04-29T02:45:10.982Z,12.65
2023-04-29T02:47:37.645Z,13.60
2023-04-29T02:50:04.817Z,11.52
2023-04-29T02:52:31.925Z,10.23
2023-04-29T02:54:58.512Z,11.38
2023-04-29T02:57:25.133Z,11.75
2023-04-29T02:59:51.878Z,11.68
2023-04-29T03:02:18.764Z,11.65
2023-04-29T03:04:45.592Z,11.80
2023-04-29T03:07:12.317Z,11.73
2023-04-29T03:09:39.154Z,11.40
2023-04-29T03:12:05.827Z,11.90
2023-04-29T03:14:32.426Z,11.85
2023-04-29T03:16:59.149Z,12.07
2023-04-29T03:19:25.799Z,12.02
2023-04-29T03:21:53.922Z,11.45
2023-04-29T03:24:20.826Z,11.25
2023-04-29T03:26:47.465Z,12.23
2023-04-29T03:29:14.097Z,11.43
2023-04-29T03:31:40.872Z,11.13
2023-04-29T03:34:07.503Z,11.00
2023-04-29T03:36:34.286Z,11.65
2023-04-29T03:39:01.064Z,12.30
2023-04-29T03:41:27.686Z,11.07
2023-04-29T03:43:54.889Z,11.10
2023-04-29T03:46:21.816Z,11.35
2023-04-29T03:48:48.592Z,10.48
2023-04-29T03:51:15.312Z,11.60
2023-04-29T03:53:45.260Z,11.40
2023-04-29T03:56:11.854Z,11.90
2023-04-29T03:58:38.499Z,11.52
2023-04-29T04:01:05.418Z,11.52
2023-04-29T04:03:32.687Z,11.60
2023-04-29T04:05:59.529Z,11.45
2023-04-29T04:08:26.159Z,11.07
2023-04-29T04:10:52.717Z,11.85
2023-04-29T04:13:19.367Z,11.80
2023-04-29T04:15:54.501Z,11.32
2023-04-29T04:18:21.241Z,11.45
2023-04-29T04:20:47.834Z,11.65
2023-04-29T04:23:14.868Z,11.20
2023-04-29T04:25:48.558Z,11.27
2023-04-29T04:28:15.770Z,12.10
2023-04-29T04:30:42.958Z,12.45
2023-04-29T04:33:10.700Z,11.60
2023-04-29T04:35:37.370Z,11.15
2023-04-29T04:38:03.978Z,11.30
2023-04-29T04:40:30.756Z,11.40
2023-04-29T04:42:57.425Z,10.77
2023-04-29T04:45:24.194Z,10.68
2023-04-29T04:47:50.890Z,10.30
2023-04-29T04:50:17.719Z,10.60
2023-04-29T04:52:44.328Z,9.80
2023-04-29T04:55:12.302Z,9.60
2023-04-29T04:57:40.389Z,9.65
2023-04-29T05:00:07.568Z,9.43
2023-04-29T05:02:34.345Z,9.50
2023-04-29T05:05:01.267Z,9.13
2023-04-29T05:07:27.878Z,9.20
2023-04-29T05:09:54.525Z,9.75
2023-04-29T05:12:21.260Z,8.77
2023-04-29T05:14:47.846Z,8.38
2023-04-29T05:17:14.420Z,8.57
2023-04-29T05:19:41.054Z,9.25
2023-04-29T05:22:07.721Z,8.60
2023-04-29T05:24:34.268Z,9.27
2023-04-29T05:27:00.868Z,8.63
2023-04-29T05:29:28.006Z,9.23
2023-04-29T05:31:54.613Z,8.70
2023-04-29T05:34:21.257Z,8.43
2023-04-29T05:36:47.835Z,9.27
2023-04-29T05:39:14.670Z,8.50
2023-04-29T05:41:41.291Z,8.30
2023-04-29T05:44:07.865Z,7.60
2023-04-29T05:46:34.623Z,8.50
2023-04-29T05:49:01.314Z,8.23
2023-04-29T05:51:28.309Z,7.88
2023-04-29T05:53:55.377Z,7.70
2023-04-29T05:56:22.402Z,7.65
2023-04-29T05:58:49.044Z,8.10
2023-04-29T06:01:17.341Z,8.15
2023-04-29T06:03:44.431Z,8.57
2023-04-29T06:06:11.672Z,8.00
2023-04-29T06:08:38.460Z,7.20
2023-04-29T06:11:05.472Z,8.15
2023-04-29T06:13:32.858Z,7.97
2023-04-29T06:15:59.601Z,8.77
2023-04-29T06:18:26.362Z,8.52
2023-04-29T06:20:52.944Z,9.70
2023-04-29T06:23:19.538Z,9.48
2023-04-29T06:25:46.211Z,8.82
2023-04-29T06:28:12.773Z,9.00
2023-04-29T06:30:39.410Z,8.55
2023-04-29T06:33:06.212Z,9.18
2023-04-29T06:35:32.899Z,8.85
2023-04-29T06:37:59.529Z,9.15
2023-04-29T06:40:26.215Z,8.95
2023-04-29T06:42:52.921Z,9.18
2023-04-29T06:45:19.560Z,9.70
2023-04-29T06:47:46.598Z,8.95
2023-04-29T06:50:13.241Z,8.82
2023-04-29T06:52:39.979Z,9.20
2023-04-29T06:55:07.024Z,9.88
2023-04-29T06:57:33.762Z,10.27
2023-04-29T07:00:00.849Z,9.77
2023-04-29T07:02:27.550Z,9.40
2023-04-29T07:04:54.462Z,9.13
2023-04-29T07:07:21.215Z,9.88
2023-04-29T07:09:51.269Z,10.20
2023-04-29T07:12:18.061Z,10.13
2023-04-29T07:14:44.710Z,9.70
2023-04-29T07:17:13.474Z,9.48
2023-04-29T07:19:40.943Z,9.85
2023-04-29T07:22:07.580Z,9.38
2023-04-29T07:24:34.390Z,8.98
2023-04-29T07:27:00.971Z,9.57
2023-04-29T07:29:27.560Z,9.63
2023-04-29T07:31:54.215Z,8.63
2023-04-29T07:34:20.949Z,9.40
2023-04-29T07:36:47.582Z,8.38
2023-04-29T07:39:15.540Z,8.18
2023-04-29T07:41:42.167Z,7.78
2023-04-29T07:44:08.777Z,7.13
2023-04-29T07:46:35.434Z,7.70
2023-04-29T07:49:02.095Z,7.85
2023-04-29T07:51:29.204Z,8.05
2023-04-29T07:53:56.342Z,7.93
2023-04-29T07:56:23.602Z,7.53
2023-04-29T07:58:50.348Z,7.47
2023-04-29T08:01:16.961Z,7.68
2023-04-29T08:03:43.793Z,6.35
2023-04-29T08:06:10.919Z,7.30
2023-04-29T08:08:37.575Z,7.05
2023-04-29T08:11:04.802Z,6.78
2023-04-29T08:13:31.447Z,7.05
2023-04-29T08:15:58.121Z,7.90
2023-04-29T08:18:27.990Z,7.25
2023-04-29T08:20:54.561Z,6.82
2023-04-29T08:23:21.204Z,6.05
2023-04-29T08:25:51.916Z,6.45
2023-04-29T08:28:19.713Z,6.40
2023-04-29T08:30:46.712Z,5.85
2023-04-29T08:33:13.723Z,7.88
2023-04-29T08:35:41.284Z,5.90
2023-04-29T08:38:09.339Z,5.63
2023-04-29T08:40:41.460Z,5.15
2023-04-29T08:43:10.268Z,5.93
2023-04-29T08:45:37.584Z,5.80
2023-04-29T08:48:05.119Z,5.95
2023-04-29T08:50:32.825Z,5.70
2023-04-29T08:52:59.502Z,5.80
2023-04-29T08:55:27.632Z,5.30
2023-04-29T08:57:56.663Z,4.93
2023-04-29T09:00:24.951Z,4.50
2023-04-29T09:02:55.823Z,4.97
2023-04-29T09:05:23.817Z,5.03
2023-04-29T09:07:51.685Z,5.05
2023-04-29T09:10:21.809Z,4.65
2023-04-29T09:12:48.466Z,4.47
2023-04-29T09:15:15.136Z,4.07
2023-04-29T09:17:46.975Z,4.50
2023-04-29T09:20:22.797Z,4.50
2023-04-29T09:22:55.805Z,4.53
2023-04-29T09:25:22.539Z,4.70
2023-04-29T09:27:49.366Z,4.60
2023-04-29T09:30:17.417Z,4.90
2023-04-29T09:32:47.748Z,4.32
2023-04-29T09:35:26.735Z,4.72
2023-04-29T09:38:07.678Z,4.75
2023-04-29T09:40:43.407Z,4.88
2023-04-29T09:43:16.047Z,4.63
2023-04-29T09:45:45.713Z,4.40
2023-04-29T09:48:14.437Z,4.50
2023-04-29T09:50:43.766Z,4.78
2023-04-29T09:53:11.836Z,3.90
2023-04-29T09:55:53.563Z,3.92
2023-04-29T09:58:40.208Z,4.45
2023-04-29T10:01:07.448Z,4.38
2023-04-29T10:03:37.261Z,3.85
2023-04-29T10:06:07.815Z,4.35
2023-04-29T10:08:35.223Z,3.95
2023-04-29T10:11:05.653Z,3.85
2023-04-29T10:13:35.005Z,3.70
2023-04-29T10:16:11.515Z,3.33
2023-04-29T10:18:42.711Z,4.15
2023-04-29T10:21:09.862Z,4.20
2023-04-29T10:23:37.703Z,4.07
2023-04-29T10:26:07.110Z,4.13
2023-04-29T10:28:37.888Z,3.63
2023-04-29T10:31:06.733Z,3.40
2023-04-29T10:33:35.706Z,4.15
2023-04-29T10:36:03.653Z,4.03
2023-04-29T10:38:42.563Z,4.43
2023-04-29T10:41:17.066Z,3.70
2023-04-29T10:43:43.764Z,3.70
2023-04-29T10:46:27.263Z,2.97
2023-04-29T10:49:01.117Z,3.20
2023-04-29T10:51:35.747Z,2.90
2023-04-29T10:54:15.486Z,3.45
2023-04-29T10:56:52.357Z,3.47
2023-04-29T10:59:27.962Z,3.72
2023-04-29T11:01:55.237Z,3.65
2023-04-29T11:04:23.022Z,3.50
2023-04-29T11:07:01.100Z,3.58
2023-04-29T11:09:29.671Z,4.05
2023-04-29T11:12:05.602Z,3.53
2023-04-29T11:14:56.368Z,3.50
2023-04-29T11:17:24.920Z,3.97
2023-04-29T11:19:53.631Z,3.25
2023-04-29T11:22:23.335Z,3.10
2023-04-29T11:24:58.324Z,3.42
2023-04-29T11:27:33.352Z,3.10
2023-04-29T11:30:01.490Z,3.33
2023-04-29T11:32:30.189Z,3.00
2023-04-29T11:35:17.964Z,3.08
2023-04-29T11:37:46.230Z,2.92
2023-04-29T11:40:13.949Z,3.08
2023-04-29T11:42:50.371Z,3.03
2023-04-29T11:45:18.312Z,3.05
2023-04-29T11:47:46.530Z,2.72
2023-04-29T11:50:16.743Z,2.70
2023-04-29T11:52:44.654Z,3.10
2023-04-29T11:55:12.049Z,3.13
2023-04-29T11:57:40.628Z,2.80
2023-04-29T12:00:14.633Z,2.80
2023-04-29T12:05:13.308Z,2.70
2023-04-29T12:07:40.398Z,2.40
2023-04-29T12:10:12.320Z,2.70
2023-04-29T12:12:41.351Z,2.70
2023-04-29T12:15:10.269Z,2.70
2023-04-29T12:17:38.224Z,2.90
2023-04-29T12:20:06.514Z,2.38
2023-04-29T12:22:33.832Z,2.20
2023-04-29T12:25:03.171Z,2.60
2023-04-29T12:27:30.134Z,2.50
2023-04-29T12:29:57.404Z,2.42
2023-04-29T12:32:25.258Z,2.38
2023-04-29T12:34:53.240Z,2.80
2023-04-29T12:37:22.544Z,2.60
2023-04-29T12:39:57.255Z,2.70
2023-04-29T12:42:33.148Z,3.00
2023-04-29T12:44:59.781Z,2.53
2023-04-29T12:47:33.950Z,2.55
2023-04-29T12:52:27.607Z,3.03
2023-04-29T12:54:54.584Z,2.60
2023-04-29T12:57:22.354Z,2.80
2023-04-29T12:59:48.960Z,2.90
2023-04-29T13:02:16.327Z,3.00
2023-04-29T13:04:50.727Z,2.95
2023-04-29T13:07:18.197Z,3.58
2023-04-29T13:09:44.834Z,3.30
2023-04-29T13:12:11.498Z,3.05
2023-04-29T13:14:38.173Z,2.88
2023-04-29T13:17:05.463Z,3.00
2023-04-29T13:19:49.744Z,3.10
2023-04-29T13:22:18.313Z,3.65
2023-04-29T13:24:46.887Z,3.47
2023-04-29T13:27:13.751Z,3.22
2023-04-29T13:29:41.643Z,3.53
2023-04-29T13:32:08.799Z,3.15
2023-04-29T13:34:35.896Z,3.20
2023-04-29T13:37:03.842Z,2.70
2023-04-29T13:39:30.439Z,3.13
2023-04-29T13:41:59.423Z,3.17
2023-04-29T13:44:34.100Z,3.80
2023-04-29T13:47:07.524Z,3.13
2023-04-29T13:50:05.748Z,3.00
2023-04-29T13:55:25.876Z,2.58
2023-04-29T14:00:25.063Z,3.60
2023-04-29T14:05:26.421Z,3.10
2023-04-29T14:07:53.412Z,2.95
2023-04-29T14:10:23.490Z,2.60
2023-04-29T14:12:50.276Z,3.00
2023-04-29T14:15:20.276Z,2.78
2023-04-29T14:17:47.102Z,2.53
2023-04-29T14:20:13.941Z,2.78
2023-04-29T14:22:40.606Z,3.00
2023-04-29T14:25:08.360Z,3.15
2023-04-29T14:27:36.740Z,3.00
2023-04-29T14:30:04.739Z,2.70
2023-04-29T14:32:31.615Z,2.95
2023-04-29T14:34:58.630Z,2.83
2023-04-29T14:37:26.769Z,3.00
2023-04-29T14:39:53.415Z,3.35
2023-04-29T14:42:21.632Z,3.60
2023-04-29T14:44:48.347Z,3.25
2023-04-29T14:47:15.025Z,3.30
2023-04-29T14:49:45.665Z,2.92
2023-04-29T14:52:19.690Z,3.20
2023-04-29T14:57:12.967Z,3.00
2023-04-29T14:59:39.578Z,3.03
2023-04-29T15:02:06.858Z,2.97
2023-04-29T15:04:34.318Z,3.22
2023-04-29T15:07:00.974Z,2.75
2023-04-29T15:09:28.656Z,3.28
2023-04-29T15:11:55.941Z,2.58
2023-04-29T15:14:22.515Z,2.88
2023-04-29T15:16:49.284Z,3.17
2023-04-29T15:19:16.025Z,3.10
2023-04-29T15:21:42.569Z,2.72
2023-04-29T15:24:09.344Z,2.65
2023-04-29T15:26:36.061Z,2.95
2023-04-29T15:29:03.376Z,2.67
2023-04-29T15:31:30.806Z,2.50
2023-04-29T15:33:57.547Z,2.55
2023-04-29T15:36:29.956Z,2.50
2023-04-29T15:38:56.916Z,2.25
2023-04-29T15:41:28.271Z,2.42
2023-04-29T15:43:57.226Z,2.28
2023-04-29T15:46:24.073Z,2.40
2023-04-29T15:48:50.765Z,2.28
2023-04-29T15:51:18.106Z,2.67
2023-04-29T15:53:44.901Z,2.67
2023-04-29T15:56:11.514Z,2.30
2023-04-29T15:58:38.150Z,1.58
2023-04-29T16:01:05.037Z,1.80
2023-04-29T16:03:31.777Z,2.03
2023-04-29T16:05:58.584Z,1.70
2023-04-29T16:08:25.525Z,1.90
2023-04-29T16:10:54.791Z,1.75
2023-04-29T16:13:21.379Z,1.95
2023-04-29T16:15:48.127Z,2.30
2023-04-29T16:18:14.988Z,2.03
2023-04-29T16:20:41.943Z,2.08
2023-04-29T16:23:10.439Z,1.90
2023-04-29T16:25:37.074Z,2.20
2023-04-29T16:28:03.691Z,2.70
2023-04-29T16:30:30.433Z,2.13
2023-04-29T16:32:57.331Z,2.03
2023-04-29T16:35:26.346Z,2.50
2023-04-29T16:37:56.138Z,2.30
2023-04-29T16:40:24.092Z,2.28
2023-04-29T16:42:53.336Z,2.58
2023-04-29T16:45:22.297Z,2.50
2023-04-29T16:47:53.168Z,2.05
2023-04-29T16:50:20.120Z,3.03
2023-04-29T16:52:46.726Z,2.40
2023-04-29T16:55:13.527Z,2.20
2023-04-29T16:57:42.288Z,2.10
2023-04-29T17:00:11.121Z,2.00
2023-04-29T17:02:40.281Z,2.00
2023-04-29T17:05:09.002Z,2.00
2023-04-29T17:07:35.824Z,1.95
2023-04-29T17:10:04.827Z,1.65
2023-04-29T17:12:31.481Z,1.50
2023-04-29T17:14:58.190Z,1.25
2023-04-29T17:17:24.943Z,1.33
2023-04-29T17:19:51.955Z,1.10
2023-04-29T17:22:19.741Z,1.73
2023-04-29T17:24:46.446Z,1.40
2023-04-29T17:27:13.519Z,1.40
2023-04-29T17:29:41.042Z,1.40
2023-04-29T17:32:11.395Z,1.40
2023-04-29T17:34:38.430Z,1.30
2023-04-29T17:37:06.150Z,1.00
2023-04-29T17:39:34.108Z,0.90
2023-04-29T17:42:03.730Z,1.05
2023-04-29T17:44:30.524Z,1.00
2023-04-29T17:46:57.294Z,1.30
2023-04-29T17:49:23.937Z,1.20
2023-04-29T17:51:50.703Z,1.85
2023-04-29T17:54:17.379Z,0.80
2023-04-29T17:56:44.196Z,0.95
2023-04-29T17:59:11.159Z,0.80
2023-04-29T18:01:37.905Z,0.80
2023-04-29T18:04:05.830Z,0.70
2023-04-29T18:06:32.679Z,0.90
2023-04-29T18:08:59.500Z,0.90
2023-04-29T18:11:26.213Z,1.15
2023-04-29T18:13:54.272Z,1.10
2023-04-29T18:16:21.244Z,1.10
2023-04-29T18:18:51.376Z,1.00
2023-04-29T18:21:22.786Z,1.40
2023-04-29T18:23:49.791Z,1.10
2023-04-29T18:26:16.499Z,1.33
2023-04-29T18:28:46.160Z,1.00
2023-04-29T18:31:13.764Z,1.42
2023-04-29T18:33:40.529Z,0.98
2023-04-29T18:36:07.361Z,1.02
2023-04-29T18:38:34.105Z,1.20
2023-04-29T18:41:00.780Z,1.00
2023-04-29T18:43:30.111Z,1.02
2023-04-29T18:45:58.769Z,1.33
2023-04-29T18:48:28.702Z,1.17
2023-04-29T18:50:56.265Z,1.58
2023-04-29T18:53:22.902Z,1.30
2023-04-29T18:55:49.535Z,1.20
2023-04-29T18:58:16.460Z,1.50
2023-04-29T19:00:43.148Z,1.05
2023-04-29T19:03:09.933Z,1.15
2023-04-29T19:05:36.701Z,1.30
2023-04-29T19:08:03.437Z,1.40
2023-04-29T19:10:30.947Z,1.10
2023-04-29T19:12:57.551Z,1.48
2023-04-29T19:15:27.889Z,1.35
2023-04-29T19:17:55.147Z,1.40
2023-04-29T19:20:22.050Z,1.40
2023-04-29T19:22:48.969Z,1.17
2023-04-29T19:25:18.272Z,1.30
2023-04-29T19:27:45.158Z,1.58
2023-04-29T19:30:12.931Z,1.83
2023-04-29T19:32:39.698Z,1.50
2023-04-29T19:35:06.903Z,1.80
2023-04-29T19:37:33.509Z,1.73
2023-04-29T19:40:00.176Z,2.35
2023-04-29T19:42:27.089Z,1.35
2023-04-29T19:44:53.638Z,1.60
2023-04-29T19:47:20.268Z,1.52
2023-04-29T19:49:47.252Z,1.45
2023-04-29T19:52:13.866Z,1.40
2023-04-29T19:54:40.776Z,1.45
2023-04-29T19:57:07.814Z,1.20
2023-04-29T19:59:34.417Z,1.50
2023-04-29T20:02:01.040Z,1.20
2023-04-29T20:04:27.794Z,1.42
2023-04-29T20:06:54.441Z,1.55
2023-04-29T20:09:21.185Z,1.60
2023-04-29T20:11:47.763Z,1.75
2023-04-29T20:14:14.487Z,1.80
2023-04-29T20:16:41.539Z,1.83
2023-04-29T20:19:08.157Z,1.90
2023-04-29T20:21:38.041Z,1.98
2023-04-29T20:24:04.842Z,2.17
2023-04-29T20:26:31.486Z,2.10
2023-04-29T20:28:58.320Z,2.40
2023-04-29T20:31:25.034Z,2.55
2023-04-29T20:33:51.640Z,2.35
2023-04-29T20:36:18.600Z,2.58
2023-04-29T20:38:45.263Z,2.70
2023-04-29T20:41:11.906Z,2.63
2023-04-29T20:43:38.561Z,3.10
2023-04-29T20:46:05.367Z,2.80
2023-04-29T20:48:32.128Z,3.03
2023-04-29T20:50:58.794Z,3.38
2023-04-29T20:53:25.680Z,3.20
2023-04-29T20:55:52.390Z,3.08
2023-04-29T20:58:18.981Z,3.80
2023-04-29T21:00:45.681Z,3.35
2023-04-29T21:03:12.348Z,3.55
2023-04-29T21:05:38.943Z,3.40
2023-04-29T21:08:06.201Z,3.65
2023-04-29T21:10:33.053Z,3.53
2023-04-29T21:12:59.728Z,3.47
2023-04-29T21:15:26.978Z,3.35
2023-04-29T21:17:53.783Z,3.20
2023-04-29T21:20:20.490Z,3.53
2023-04-29T21:22:47.120Z,3.40
2023-04-29T21:25:13.745Z,3.85
2023-04-29T21:27:40.513Z,3.03
2023-04-29T21:30:07.756Z,3.67
2023-04-29T21:32:35.940Z,3.75
2023-04-29T21:35:02.642Z,3.80
2023-04-29T21:37:30.511Z,4.13
2023-04-29T21:39:58.275Z,3.78
2023-04-29T21:42:26.305Z,3.72
2023-04-29T21:44:58.288Z,3.33
2023-04-29T21:47:25.623Z,3.30
2023-04-29T21:49:53.972Z,3.65
2023-04-29T21:52:20.916Z,3.25
2023-04-29T21:54:47.537Z,3.45
2023-04-29T21:57:14.186Z,3.75
2023-04-29T21:59:40.793Z,3.90
2023-04-29T22:02:22.687Z,4.10
2023-04-29T22:04:50.842Z,4.10
2023-04-29T22:07:18.558Z,4.22
2023-04-29T22:09:49.670Z,3.95
2023-04-29T22:12:17.974Z,4.60
2023-04-29T22:14:45.194Z,4.50
2023-04-29T22:17:13.012Z,4.70
2023-04-29T22:19:39.774Z,4.80
2023-04-29T22:22:06.687Z,4.00
2023-04-29T22:24:33.343Z,3.92
2023-04-29T22:26:59.961Z,4.43
2023-04-29T22:29:26.613Z,4.47
2023-04-29T22:31:53.287Z,4.53
2023-04-29T22:34:20.041Z,4.80
2023-04-29T22:36:46.682Z,4.68
2023-04-29T22:39:13.255Z,3.97
2023-04-29T22:41:39.868Z,4.40
2023-04-29T22:44:06.476Z,4.90
2023-04-29T22:46:33.387Z,4.32
2023-04-29T22:49:00.252Z,4.47
2023-04-29T22:51:26.845Z,4.50
2023-04-29T22:53:53.487Z,4.35
2023-04-29T22:56:20.174Z,4.65
2023-04-29T22:58:46.849Z,4.43
2023-04-29T23:01:13.500Z,4.30
2023-04-29T23:03:40.394Z,4.20
2023-04-29T23:06:07.537Z,4.30
2023-04-29T23:08:34.199Z,4.65
2023-04-29T23:11:00.822Z,4.28
2023-04-29T23:13:27.488Z,4.63
2023-04-29T23:15:57.621Z,5.28
2023-04-29T23:18:24.303Z,4.63
2023-04-29T23:20:51.529Z,5.57
2023-04-29T23:23:18.346Z,5.43
2023-04-29T23:25:45.657Z,5.32
2023-04-29T23:28:12.316Z,5.88
2023-04-29T23:30:39.011Z,5.63
2023-04-29T23:33:05.683Z,5.93
2023-04-29T23:35:32.580Z,5.90
2023-04-29T23:37:59.306Z,6.07
2023-04-29T23:40:26.000Z,6.72
2023-04-29T23:42:52.648Z,6.00
2023-04-29T23:45:19.311Z,5.70
2023-04-29T23:47:45.946Z,5.70
2023-04-29T23:50:12.532Z,6.35
2023-04-29T23:52:39.217Z,5.28
2023-04-29T23:55:06.497Z,5.55
2023-04-29T23:57:33.186Z,5.60
